Pagrindinis puslapis
METAR-TAF:

METAR-TAF

Oro uostai :

Kuveitas, Kuveitas

platuma: 29-13N, ilguma: 047-59E, Aukštis: 55 m

Dabartinis oras

Ataskaita buvo paskelbta 58 minutes, ne 12:00 UTC
Vėjas 8 kt iš Šiaurės
Temperatūra 24°C
Drėgmė 31%
Slėgis 1015 hPa
Matomumas: 7000 m

METAR: OKBK 281200Z 01008KT 7000 NSC 24/06 Q1015 NOSIG

Laikas: 15:58 (12:58 UTC)

Prognozė

Ataskaita buvo paskelbta 2 valandos ir 13 minutes, ne 10:45 UTC
Prognozė galioja nuo 28 metu 12 UTC su 29 metu 18 UTC
Vėjas 8 kt iš Šiaurės/Šiaurės Vakarų su gūsio iki 18 kt
Matomumas: 6000 m
Laikinai
nuo 28 metu 18 UTC su 29 metu 03 UTC
Vėjas 3 kt nuo kintamojo kryptimis
Matomumas: 4000 m
migla

TAF: OKBK 281045Z 2812/2918 33008G18KT 6000 NSC TEMPO 2818/2903 VRB03KT 4000 HZ

Orai ataskaitas ir orų prognozės (METAR, TAF).

turimą stotys yra geltonos ir raudonos taškus žemėlapyje.

Perkelti pele per norėdami pamatyti stoties vardą.

Tada spustelėkite, norėdami matyti oro stebėjimo ir prognozės.

Norėdami pakeisti žemėlapį: spustelėkite ant žalios mygtukų su juodo kryžiaus žemyn,; žalią mygtuką su brūkšneliu, jei norite nutolinti; arba žalių rodyklių gretimoms žemėlapius.


METAR-TAF: